Airport View

Enter AWOS ICAO identifier for current METAR.

ex. KFNL

KMUO 202158Z AUTO 31009KT 10SM BKN120 17/03 A3003 RMK AO2 SLP165 T01710030 $

20 Oct 2020 22:13

Other Area AWOS: KBOI - KMAN - KEUL - KJER

TAF KMUO 201800Z 2018/2124 32012G20KT 9999 SCT070 BKN150 QNH3002INS BECMG 2100/2101 VRB06KT 9999 FEW070 SCT100 QNH2997INS BECMG 2112/2113 31012KT 9999 BKN080 BKN200 QNH2992INS BECMG 2120/2121 32015G25KT 9999 SCT070 BKN150 QNH2985INS TX18/2022Z TN04/2112Z